Time;durP1;ratioP1;P1;durP2;ratioP2;P2;SDS_P1;SDS_P2;PMS_P1;PMS_P2;Temp;Humidity;BMP_temperature;BMP_pressure;BME280_temperature;BME280_humidity;BME280_pressure;Samples;Min_cycle;Max_cycle;Signal;HPM_P1;HPM_P2
2023/09/29 00:00:16;;;;;;;7.40;4.18;;;19.10;66.30;;;20.63;50.69;97863.06;5024565;28;20044;-61
2023/09/29 00:02:47;;;;;;;5.57;3.58;;;19.20;66.20;;;20.69;50.56;97860.53;5022417;28;20045;-61
2023/09/29 00:05:18;;;;;;;5.07;3.65;;;19.20;66.00;;;20.69;50.51;97864.03;5020864;28;20049;-61
2023/09/29 00:07:46;;;;;;;4.50;3.75;;;19.20;66.10;;;20.71;50.31;97864.66;5004297;28;20054;-61
2023/09/29 00:10:16;;;;;;;4.78;3.53;;;19.20;65.60;;;20.71;50.54;97867.34;5023893;28;20513;-61
2023/09/29 00:12:45;;;;;;;6.15;4.07;;;19.20;65.50;;;20.75;50.19;97867.75;5004884;28;20049;-61
2023/09/29 00:15:15;;;;;;;7.53;4.13;;;19.30;65.20;;;20.80;50.15;97865.19;5020610;28;20094;-61
2023/09/29 00:17:43;;;;;;;6.15;4.60;;;19.40;64.90;;;20.82;49.83;97855.81;5004992;28;20042;-61
2023/09/29 00:20:17;;;;;;;4.05;3.63;;;19.40;64.60;;;20.85;50.07;97854.53;5006293;28;20117;-61
2023/09/29 00:22:44;;;;;;;;;;;19.50;64.40;;;20.86;49.84;97858.91;5005935;28;20041;-61
2023/09/29 00:25:12;;;;;;;6.00;4.32;;;19.40;64.00;;;20.86;49.93;97858.91;5020415;28;19925;-61
2023/09/29 00:27:39;;;;;;;5.38;3.75;;;19.30;64.90;;;20.84;49.74;97856.44;5021084;28;20042;-61
2023/09/29 00:30:10;;;;;;;6.22;4.55;;;19.30;64.80;;;20.83;49.79;97859.34;5022191;28;20417;-61
2023/09/29 00:32:46;;;;;;;5.93;4.72;;;19.30;64.80;;;20.80;49.92;97857.94;5021160;28;20061;-61
2023/09/29 00:35:27;;;;;;;7.60;4.65;;;19.30;64.70;;;20.81;49.76;97856.84;5002216;28;20050;-61
2023/09/29 00:37:57;;;;;;;4.45;3.47;;;19.30;64.50;;;20.84;49.58;97855.59;5023527;28;20046;-61
2023/09/29 00:40:27;;;;;;;5.78;4.20;;;19.40;64.40;;;20.82;49.66;97853.13;5023749;28;20049;-61
2023/09/29 00:42:57;;;;;;;6.18;4.18;;;19.30;64.50;;;20.82;49.42;97852.28;4986817;28;20046;-61
2023/09/29 00:45:26;;;;;;;5.15;4.05;;;19.30;64.70;;;20.80;49.89;97847.09;4998658;28;20050;-61
2023/09/29 00:47:59;;;;;;;5.45;3.92;;;19.20;64.60;;;20.78;49.51;97835.69;5010567;28;20049;-61
2023/09/29 00:50:26;;;;;;;5.57;4.20;;;19.20;64.60;;;20.76;49.85;97839.63;5006293;28;20421;-61
2023/09/29 00:52:58;;;;;;;5.95;4.32;;;19.20;64.60;;;20.73;49.70;97835.50;4996388;28;20315;-61
2023/09/29 00:55:29;;;;;;;6.03;4.38;;;19.10;65.00;;;20.68;49.96;97832.63;4989329;28;20049;-61
2023/09/29 00:57:59;;;;;;;6.53;4.20;;;19.00;65.00;;;20.63;49.68;97851.41;5020186;28;20049;-61
2023/09/29 01:03:05;;;;;;;5.55;4.85;;;18.90;66.50;;;20.52;50.02;97844.78;4988886;28;20053;-61
2023/09/29 01:05:46;;;;;;;5.30;4.25;;;18.80;65.60;;;20.46;49.84;97854.63;5021226;28;20100;-61
2023/09/29 01:08:20;;;;;;;6.63;3.97;;;18.70;66.60;;;20.39;50.18;97845.72;5010396;28;20044;-61
2023/09/29 01:10:48;;;;;;;;;;;18.60;66.90;;;20.33;49.96;97840.38;4994057;28;20052;-61
2023/09/29 01:13:17;;;;;;;6.47;4.13;;;18.50;68.00;;;20.30;49.96;97843.50;5007716;28;19921;-61
2023/09/29 01:15:46;;;;;;;7.28;4.63;;;18.40;67.30;;;20.22;50.29;97834.63;4988020;28;20531;-61
2023/09/29 01:18:16;;;;;;;8.55;5.20;;;18.40;67.50;;;20.15;50.71;97841.94;4982639;28;20046;-61
2023/09/29 01:20:44;;;;;;;7.47;4.88;;;18.40;67.40;;;20.06;50.77;97835.97;4983985;28;20037;-61
2023/09/29 01:23:12;;;;;;;6.75;5.07;;;18.30;68.40;;;20.00;50.86;97836.81;5023073;28;20063;-61
2023/09/29 01:25:40;;;;;;;8.73;5.15;;;18.20;68.60;;;19.95;50.91;97833.13;5021953;28;20049;-61
2023/09/29 01:28:09;;;;;;;4.90;3.50;;;18.20;68.50;;;19.91;50.99;97840.84;5019527;28;20042;-61
2023/09/29 01:30:37;;;;;;;5.50;4.07;;;18.20;68.80;;;19.88;51.22;97833.16;4989650;28;20076;-61
2023/09/29 01:33:05;;;;;;;6.03;4.13;;;18.10;69.00;;;19.85;51.38;97830.88;4994542;28;20539;-61
2023/09/29 01:35:33;;;;;;;7.50;4.40;;;18.10;69.10;;;19.83;51.77;97824.88;5009298;28;20061;-61
2023/09/29 01:38:01;;;;;;;4.93;4.22;;;18.10;69.40;;;19.81;51.86;97829.66;4980616;28;20104;-61
2023/09/29 01:40:29;;;;;;;5.35;4.38;;;18.10;69.50;;;19.76;51.99;97824.91;5012702;28;20496;-61
2023/09/29 01:42:57;;;;;;;5.63;4.20;;;18.10;69.70;;;19.76;51.96;97829.50;5020008;28;20041;-61
2023/09/29 01:45:26;;;;;;;5.25;4.38;;;18.10;69.60;;;19.75;52.09;97830.53;5003949;28;20504;-61
2023/09/29 01:47:55;;;;;;;4.53;3.95;;;18.10;69.70;;;19.75;52.21;97831.34;5021355;28;20064;-61
2023/09/29 01:50:23;;;;;;;5.80;4.80;;;18.20;69.50;;;19.77;52.07;97828.44;5012425;28;20060;-61
2023/09/29 01:52:51;;;;;;;5.30;4.28;;;18.20;69.50;;;19.78;52.13;97827.41;5003674;28;20052;-61
2023/09/29 01:55:20;;;;;;;6.45;4.32;;;18.20;69.30;;;19.78;52.06;97830.94;5001531;28;20046;-61
2023/09/29 01:57:56;;;;;;;8.10;4.35;;;18.20;69.50;;;19.79;52.09;97826.34;5003143;28;20049;-61
2023/09/29 02:00:24;;;;;;;6.10;4.28;;;18.20;69.30;;;19.82;52.07;97815.94;5022522;28;20049;-61
2023/09/29 02:02:55;;;;;;;5.95;3.47;;;18.20;69.20;;;19.81;52.15;97808.91;5003653;28;20238;-61
2023/09/29 02:05:23;;;;;;;5.78;3.63;;;18.30;69.00;;;19.82;52.09;97810.53;4998063;28;20504;-61
2023/09/29 02:07:52;;;;;;;5.88;3.70;;;18.30;69.00;;;19.84;51.87;97815.75;5001161;28;20037;-62
2023/09/29 02:10:22;;;;;;;4.72;4.00;;;18.30;69.00;;;19.84;51.91;97813.03;4988978;28;20042;-61
2023/09/29 02:12:59;;;;;;;5.78;4.43;;;18.20;69.00;;;19.82;52.04;97812.41;4987008;28;20053;-61
2023/09/29 02:15:33;;;;;;;5.35;4.57;;;18.20;69.20;;;19.82;51.97;97810.53;4997260;28;20150;-61
2023/09/29 02:18:05;;;;;;;7.20;4.95;;;18.20;69.20;;;19.81;52.07;97813.47;5004088;28;20042;-61
2023/09/29 02:20:35;;;;;;;5.60;4.05;;;18.20;69.30;;;19.78;52.09;97817.44;5007968;28;20045;-61
2023/09/29 02:23:05;;;;;;;7.93;3.95;;;18.20;69.10;;;19.80;52.02;97814.50;4990019;28;20057;-61
2023/09/29 02:25:32;;;;;;;6.05;4.53;;;18.30;69.00;;;19.82;51.86;97810.53;5005255;28;20063;-61
2023/09/29 02:28:00;;;;;;;7.55;4.20;;;18.30;68.70;;;19.77;51.99;97809.53;5024897;28;20053;-61
2023/09/29 02:30:29;;;;;;;6.82;4.15;;;18.30;68.50;;;19.81;51.97;97813.47;5026203;28;20046;-61
2023/09/29 02:32:57;;;;;;;5.85;4.03;;;18.30;68.10;;;19.84;51.60;97815.75;5005661;28;20509;-61
2023/09/29 02:35:25;;;;;;;6.18;4.20;;;18.30;67.80;;;19.84;51.67;97813.03;5006741;28;20053;-61
2023/09/29 02:37:53;;;;;;;4.75;3.80;;;18.40;67.60;;;19.85;51.78;97815.53;5023568;28;20049;-61
2023/09/29 02:40:22;;;;;;;5.65;3.83;;;18.40;67.20;;;19.85;51.53;97818.22;5026004;28;20460;-61
2023/09/29 02:42:50;;;;;;;6.05;3.90;;;18.40;67.00;;;19.89;51.20;97817.78;4991189;28;20041;-61
2023/09/29 02:45:19;;;;;;;6.80;3.65;;;18.50;66.80;;;19.90;51.47;97817.56;5004717;28;20034;-61
2023/09/29 02:47:47;;;;;;;5.00;3.92;;;18.50;66.60;;;19.96;51.17;97819.41;5012543;28;20045;-61
2023/09/29 02:50:16;;;;;;;5.20;3.83;;;18.50;66.60;;;20.00;51.05;97820.63;5022447;28;20049;-61
2023/09/29 02:52:44;;;;;;;6.32;4.28;;;18.50;66.30;;;20.04;50.83;97823.72;5022349;28;20038;-61
2023/09/29 02:55:16;;;;;;;5.55;3.95;;;18.50;65.90;;;20.04;50.92;97826.41;5004470;28;20045;-61
2023/09/29 02:57:44;;;;;;;5.07;4.00;;;18.60;66.00;;;20.01;50.70;97824.97;5004563;28;20049;-61
2023/09/29 03:00:21;;;;;;;6.32;4.70;;;18.50;66.30;;;19.97;51.16;97828.34;5014913;28;20391;-61
2023/09/29 03:02:53;;;;;;;6.35;4.07;;;18.30;67.40;;;19.94;51.07;97824.19;5022540;28;20052;-61
2023/09/29 03:05:22;;;;;;;7.72;4.95;;;18.30;67.50;;;19.92;50.92;97814.66;5008287;28;20068;-61
2023/09/29 03:07:50;;;;;;;6.40;4.20;;;18.30;67.30;;;19.90;51.08;97822.16;4991310;28;20501;-61
2023/09/29 03:10:25;;;;;;;4.97;4.30;;;18.20;67.50;;;19.86;50.87;97817.16;5022373;28;20050;-61
2023/09/29 03:12:56;;;;;;;4.88;3.70;;;18.10;67.60;;;19.81;50.87;97821.56;5022403;28;20057;-61
2023/09/29 03:15:25;;;;;;;5.78;3.45;;;18.10;67.20;;;19.80;50.93;97815.34;5024965;28;20105;-61
2023/09/29 03:17:55;;;;;;;5.47;3.55;;;18.20;67.10;;;19.82;50.93;97818.66;5022478;28;20049;-61
2023/09/29 03:20:27;;;;;;;4.85;3.97;;;18.20;67.00;;;19.84;51.10;97823.84;5005329;28;20046;-61
2023/09/29 03:23:00;;;;;;;4.95;3.95;;;18.20;66.90;;;19.82;50.91;97813.25;5021755;28;20042;-61
2023/09/29 03:25:28;;;;;;;5.72;3.95;;;18.20;66.70;;;19.84;50.66;97813.84;4991680;28;20058;-61
2023/09/29 03:27:55;;;;;;;4.82;3.88;;;18.30;66.30;;;19.87;50.59;97823.38;5022192;28;20430;-61
2023/09/29 03:30:23;;;;;;;4.07;3.65;;;18.20;66.00;;;19.89;50.51;97824.03;5005389;28;20066;-61
2023/09/29 03:32:52;;;;;;;5.75;4.05;;;18.30;65.90;;;19.91;50.49;97824.63;5021686;28;20046;-61
2023/09/29 03:35:20;;;;;;;4.13;3.42;;;18.30;65.80;;;19.95;50.21;97825.00;5007252;28;20049;-61
2023/09/29 03:37:50;;;;;;;4.70;3.78;;;18.40;65.50;;;19.97;49.98;97829.16;5024919;28;20048;-61
2023/09/29 03:40:19;;;;;;;4.43;4.00;;;18.40;65.00;;;19.93;50.14;97825.25;5013755;28;20034;-61
2023/09/29 03:42:46;;;;;;;4.28;3.70;;;18.40;64.50;;;19.91;49.87;97838.16;5021287;28;20061;-61
2023/09/29 03:45:14;;;;;;;6.00;3.92;;;18.40;64.30;;;19.92;49.96;97838.97;5024760;28;20289;-61
2023/09/29 03:47:42;;;;;;;7.72;3.97;;;18.40;64.10;;;19.91;49.67;97826.50;5024054;28;20068;-61
2023/09/29 03:50:11;;;;;;;5.32;3.58;;;18.40;64.20;;;19.91;49.70;97830.03;5021871;28;20060;-61
2023/09/29 03:52:42;;;;;;;5.50;3.70;;;18.40;63.90;;;19.90;49.75;97828.38;5021243;28;20430;-61
2023/09/29 03:55:12;;;;;;;4.65;3.50;;;18.30;64.50;;;19.88;49.87;97821.53;5023468;28;20050;-61
2023/09/29 03:57:44;;;;;;;5.13;3.15;;;18.30;64.70;;;19.92;49.83;97822.75;5006741;28;20049;-61
2023/09/29 04:00:15;;;;;;;4.95;3.15;;;18.30;64.60;;;19.85;49.91;97822.78;5020441;28;20417;-61
2023/09/29 04:02:43;;;;;;;4.32;3.88;;;18.30;64.20;;;19.88;49.86;97814.25;5004030;28;20504;-61
2023/09/29 04:05:11;;;;;;;4.88;3.90;;;18.30;64.60;;;19.90;49.85;97820.28;5006142;28;20048;-61
2023/09/29 04:07:39;;;;;;;5.18;3.15;;;18.30;64.50;;;19.92;49.80;97830.88;5006365;28;20045;-62
2023/09/29 04:10:13;;;;;;;5.18;3.55;;;18.40;64.20;;;19.97;49.71;97841.88;5019080;28;20064;-62
2023/09/29 04:12:47;;;;;;;4.45;3.67;;;18.50;63.80;;;20.05;49.61;97838.91;5020821;28;20038;-61
2023/09/29 04:15:16;;;;;;;12.65;3.95;;;18.60;63.50;;;20.14;49.38;97844.84;5006770;28;20049;-61
2023/09/29 04:17:44;;;;;;;4.80;3.80;;;18.70;63.10;;;20.19;49.20;97837.75;5006742;28;20037;-62
2023/09/29 04:20:13;;;;;;;6.10;3.40;;;18.80;62.70;;;20.25;48.97;97847.69;4987677;28;20049;-61
2023/09/29 04:22:41;;;;;;;9.77;3.70;;;18.80;62.50;;;20.31;49.05;97843.28;5003353;28;20109;-62
2023/09/29 04:25:09;;;;;;;4.20;3.60;;;18.90;62.50;;;20.35;49.10;97849.09;5022527;28;20439;-61
2023/09/29 04:27:39;;;;;;;5.50;4.25;;;19.00;62.20;;;20.39;48.98;97847.59;5006340;28;20045;-61
2023/09/29 04:30:08;;;;;;;4.90;4.00;;;19.10;62.20;;;20.42;49.03;97845.28;5021978;28;20459;-62
2023/09/29 04:32:37;;;;;;;4.20;3.35;;;19.10;62.00;;;20.46;48.78;97843.78;5002567;28;20054;-61
2023/09/29 04:35:05;;;;;;;6.07;3.70;;;19.10;62.00;;;20.48;48.70;97859.00;5021523;28;20394;-61
2023/09/29 04:37:33;;;;;;;4.90;4.13;;;19.20;62.00;;;20.49;48.99;97853.38;5006014;28;20046;-61
2023/09/29 04:40:00;;;;;;;6.45;3.38;;;19.10;62.10;;;20.48;49.00;97843.59;5023035;28;20041;-61
2023/09/29 04:42:28;;;;;;;4.15;3.58;;;19.10;62.10;;;20.52;48.57;97841.28;5019621;28;20038;-61
2023/09/29 04:44:56;;;;;;;6.75;4.40;;;19.10;62.10;;;20.49;48.97;97847.09;5019067;28;20053;-61
2023/09/29 04:47:24;;;;;;;4.93;4.03;;;19.10;62.10;;;20.55;48.72;97840.81;5023194;28;20045;-61
2023/09/29 04:49:52;;;;;;;4.35;3.65;;;19.20;62.20;;;20.57;48.76;97831.44;5023803;28;20037;-61
2023/09/29 04:52:20;;;;;;;4.45;3.42;;;19.20;63.30;;;20.60;48.89;97839.13;5020660;28;20042;-61
2023/09/29 04:54:48;;;;;;;4.97;4.00;;;19.20;62.40;;;20.62;48.68;97844.34;5006434;28;20061;-61
2023/09/29 04:57:16;;;;;;;6.93;3.97;;;19.20;62.50;;;20.61;48.76;97840.81;5004766;28;20069;-61
2023/09/29 04:59:45;;;;;;;6.03;3.90;;;19.20;62.50;;;20.64;48.63;97839.53;5024089;28;20037;-61
2023/09/29 05:02:12;;;;;;;5.43;3.67;;;19.10;62.50;;;20.63;48.94;97844.13;5021681;28;20497;-61
2023/09/29 05:04:40;;;;;;;5.35;3.80;;;19.20;62.50;;;20.65;48.83;97847.44;5020158;28;20046;-61
2023/09/29 05:07:07;;;;;;;5.18;4.55;;;19.20;62.50;;;20.66;48.83;97848.25;5020784;28;20058;-61
2023/09/29 05:09:35;;;;;;;4.93;3.53;;;19.20;62.50;;;20.69;48.86;97855.94;5005807;28;20045;-62
2023/09/29 05:12:04;;;;;;;3.92;3.53;;;19.20;62.50;;;20.69;48.88;97855.13;5022420;28;20355;-62
2023/09/29 05:14:32;;;;;;;5.57;4.25;;;19.20;62.40;;;20.70;48.66;97859.47;5018826;28;20050;-62
2023/09/29 05:17:00;;;;;;;5.70;4.15;;;19.20;62.50;;;20.67;48.86;97862.63;5019733;28;20053;-61
2023/09/29 05:19:28;;;;;;;6.32;3.90;;;19.20;63.00;;;20.64;49.08;97864.69;5023059;28;20041;-61
2023/09/29 05:21:55;;;;;;;5.45;3.70;;;19.10;63.30;;;20.62;49.06;97866.78;5023301;28;20042;-61
2023/09/29 05:24:23;;;;;;;5.90;3.50;;;19.00;63.20;;;20.61;48.88;97861.63;5019621;28;20413;-61
2023/09/29 05:26:51;;;;;;;5.90;4.18;;;19.00;63.30;;;20.62;49.05;97866.78;5019446;28;20536;-61
2023/09/29 05:29:18;;;;;;;4.85;3.72;;;19.00;63.30;;;20.62;48.90;97872.19;5022200;28;20049;-61
2023/09/29 05:31:46;;;;;;;4.75;3.72;;;19.10;63.30;;;20.62;48.98;97872.19;5023027;28;20057;-61
2023/09/29 05:34:13;;;;;;;6.60;4.40;;;19.10;63.40;;;20.63;48.97;97865.75;5003260;28;20042;-61
2023/09/29 05:36:41;;;;;;;9.52;4.28;;;19.10;63.60;;;20.61;49.29;97870.56;5019140;28;20523;-61
2023/09/29 05:39:09;;;;;;;9.05;4.60;;;19.10;64.00;;;20.61;49.31;97875.16;5020778;28;20042;-61
2023/09/29 05:41:37;;;;;;;5.82;4.10;;;19.10;64.20;;;20.61;49.40;97880.56;5022805;28;20393;-60
2023/09/29 05:44:05;;;;;;;5.22;3.90;;;19.00;64.40;;;20.56;49.70;97872.22;5012364;28;20037;-59
2023/09/29 05:46:33;;;;;;;5.80;3.53;;;18.90;64.70;;;20.57;49.34;97871.16;5018754;28;20044;-59
2023/09/29 05:49:01;;;;;;;5.45;3.65;;;19.00;64.70;;;20.57;49.41;97874.72;5019452;28;20049;-61
2023/09/29 05:51:28;;;;;;;7.57;4.05;;;19.00;64.80;;;20.57;49.55;97877.44;5011730;28;20041;-59
2023/09/29 05:53:58;;;;;;;4.95;4.00;;;18.90;64.80;;;20.59;49.73;97874.50;5004839;28;20045;-63
2023/09/29 05:56:26;;;;;;;6.15;4.28;;;19.00;65.00;;;20.58;49.79;97884.47;5022067;28;20497;-62
2023/09/29 05:58:55;;;;;;;6.00;4.40;;;19.00;64.90;;;20.60;49.72;97884.28;5022722;28;20045;-63
2023/09/29 06:01:25;;;;;;;7.63;4.63;;;19.00;65.10;;;20.61;50.13;97880.56;5019795;28;20050;-63
2023/09/29 06:03:53;;;;;;;5.80;4.50;;;19.00;65.40;;;20.63;49.92;97887.41;5019486;28;20041;-63
2023/09/29 06:06:21;;;;;;;7.85;4.95;;;19.00;65.70;;;20.63;50.03;97881.97;5021031;28;20064;-63
2023/09/29 06:08:49;;;;;;;7.60;4.80;;;19.10;65.70;;;20.63;50.25;97883.88;5022825;28;20045;-63
2023/09/29 06:11:37;;;;;;;6.28;4.68;;;19.00;65.80;;;20.62;50.45;97885.72;5012433;28;20078;-62
2023/09/29 06:14:06;;;;;;;5.63;4.57;;;19.00;66.10;;;20.62;50.62;97898.44;5018468;28;20046;-62
2023/09/29 06:16:33;;;;;;;5.97;4.28;;;19.00;66.40;;;20.61;50.35;97899.50;4988250;28;20049;-62
2023/09/29 06:19:02;;;;;;;5.40;4.07;;;19.00;66.50;;;20.60;50.78;97895.13;4988531;28;20038;-62
2023/09/29 06:21:29;;;;;;;7.75;4.50;;;19.00;66.60;;;20.60;50.83;97897.81;5019037;28;20042;-61
2023/09/29 06:23:57;;;;;;;6.15;4.15;;;19.00;66.70;;;20.60;50.61;97909.47;5019146;28;20429;-62
2023/09/29 06:26:26;;;;;;;8.32;5.38;;;19.00;67.00;;;20.58;50.91;97899.88;5008679;28;20046;-64
2023/09/29 06:28:53;;;;;;;12.77;5.20;;;19.10;66.80;;;20.58;51.00;97906.13;5019050;28;20513;-65
2023/09/29 06:31:21;;;;;;;6.25;4.95;;;19.10;66.80;;;20.60;50.86;97912.16;5021092;28;20417;-64
2023/09/29 06:33:49;;;;;;;7.30;4.50;;;19.10;67.00;;;20.60;51.16;97911.34;5021843;28;20034;-64
2023/09/29 06:36:17;;;;;;;7.82;5.03;;;19.10;67.10;;;20.61;51.11;97916.53;5020033;28;20049;-64
2023/09/29 06:38:44;;;;;;;6.40;4.57;;;19.10;67.10;;;20.65;51.10;97922.34;5018887;28;20490;-64
2023/09/29 06:41:12;;;;;;;7.88;5.05;;;19.10;67.00;;;20.66;51.16;97915.88;5002194;28;20050;-64
2023/09/29 06:43:43;;;;;;;6.50;5.00;;;19.20;67.10;;;20.70;51.56;97918.97;5030313;28;20060;-65
2023/09/29 06:46:10;;;;;;;8.27;5.43;;;19.20;67.50;;;20.72;50.90;97922.28;5021045;28;20056;-65
2023/09/29 06:48:38;;;;;;;7.85;4.50;;;19.20;67.50;;;20.74;51.12;97926.41;5018754;28;20042;-63
2023/09/29 06:51:06;;;;;;;7.75;5.00;;;19.20;67.40;;;20.75;50.91;97916.44;5005672;28;20050;-64
2023/09/29 06:53:34;;;;;;;8.13;5.15;;;19.20;67.70;;;20.75;51.04;97911.84;5018881;28;20160;-64
2023/09/29 06:56:01;;;;;;;5.95;4.13;;;19.20;68.20;;;20.78;51.53;97916.84;5018323;28;20049;-63
2023/09/29 06:58:29;;;;;;;7.65;3.75;;;19.20;67.40;;;20.85;51.13;97920.28;5021501;28;20049;-63
2023/09/29 07:00:57;;;;;;;6.05;3.83;;;19.30;67.10;;;20.90;51.25;97918.81;5022237;28;20116;-62
2023/09/29 07:03:45;;;;;;;5.47;4.22;;;19.50;66.80;;;20.93;50.85;97912.97;4997583;28;20038;-62
2023/09/29 07:06:15;;;;;;;6.50;4.25;;;19.60;65.80;;;20.94;51.00;97910.03;5021030;28;20045;-62
2023/09/29 07:08:43;;;;;;;6.55;4.25;;;19.60;65.30;;;20.96;50.44;97909.81;5008473;28;20041;-63
2023/09/29 07:11:11;;;;;;;5.60;3.97;;;19.70;64.30;;;20.96;50.39;97905.22;5023426;28;20052;-63
2023/09/29 07:13:38;;;;;;;6.55;3.60;;;19.80;64.10;;;21.01;50.33;97907.25;4999975;28;20506;-63
2023/09/29 07:16:06;;;;;;;6.75;4.03;;;19.80;64.00;;;21.04;49.94;97898.72;5000135;28;20057;-65
2023/09/29 07:18:34;;;;;;;5.40;4.30;;;19.80;64.00;;;21.02;49.86;97900.81;5025141;28;20417;-65
2023/09/29 07:21:02;;;;;;;7.82;5.00;;;19.70;64.10;;;20.99;50.52;97904.78;5005803;28;20505;-65
2023/09/29 07:23:33;;;;;;;5.85;4.28;;;19.70;64.20;;;21.03;49.88;97900.59;5021131;28;20045;-65
2023/09/29 07:26:02;;;;;;;6.88;4.22;;;19.80;64.20;;;21.04;50.13;97909.53;5020029;28;20041;-65
2023/09/29 07:28:29;;;;;;;6.53;3.95;;;19.80;64.10;;;21.08;50.11;97904.53;5005090;28;20061;-66
2023/09/29 07:30:57;;;;;;;5.90;3.85;;;19.80;64.20;;;21.11;50.39;97906.75;5022033;28;20049;-65
2023/09/29 07:33:25;;;;;;;6.32;3.85;;;19.80;64.20;;;21.11;50.33;97904.91;5023371;28;20513;-64
2023/09/29 07:35:53;;;;;;;8.35;4.28;;;19.90;64.20;;;21.14;50.01;97903.63;5024821;28;20048;-66
2023/09/29 07:38:20;;;;;;;7.10;3.85;;;19.80;64.10;;;21.14;50.28;97909.03;5023839;28;20512;-65
2023/09/29 07:40:48;;;;;;;6.97;3.83;;;19.80;64.00;;;21.17;49.87;97909.41;4993296;28;20042;-66
2023/09/29 07:43:16;;;;;;;7.72;3.58;;;19.90;64.00;;;21.21;50.00;97915.22;5024941;28;20041;-66
2023/09/29 07:45:44;;;;;;;5.60;3.80;;;20.00;63.80;;;21.23;50.14;97919.34;5003908;28;20424;-66
2023/09/29 07:48:16;;;;;;;5.78;3.67;;;20.00;63.70;;;21.30;50.30;97908.44;5021769;28;20057;-66
2023/09/29 07:50:44;;;;;;;6.95;4.28;;;20.10;63.80;;;21.37;50.14;97913.81;5024718;28;20290;-66
2023/09/29 07:53:12;;;;;;;8.07;4.40;;;20.20;63.60;;;21.40;50.08;97922.31;5007421;28;20056;-65
2023/09/29 07:55:40;;;;;;;4.40;3.63;;;20.20;63.40;;;21.43;50.08;97919.19;5020709;28;20376;-66
2023/09/29 07:58:07;;;;;;;4.95;4.00;;;20.20;63.30;;;21.48;49.77;97923.94;5021285;28;20046;-65
2023/09/29 08:00:35;;;;;;;6.00;3.92;;;20.20;63.30;;;21.51;49.71;97928.06;5023872;28;20042;-67
2023/09/29 08:03:03;;;;;;;5.25;4.30;;;20.20;63.20;;;21.52;49.41;97927.00;5024736;28;20412;-65
2023/09/29 08:05:31;;;;;;;6.82;4.18;;;20.20;62.80;;;21.54;49.42;97917.63;5012700;28;20046;-65
2023/09/29 08:07:59;;;;;;;3.78;3.20;;;20.30;62.90;;;21.56;49.32;97915.50;5021301;28;20042;-65
2023/09/29 08:10:26;;;;;;;6.38;3.85;;;20.30;63.20;;;21.60;49.82;97915.88;5016257;28;20046;-65
2023/09/29 08:12:54;;;;;;;5.38;4.15;;;20.30;63.20;;;21.59;49.31;97912.34;5019108;28;20402;-65
2023/09/29 08:15:22;;;;;;;7.20;3.63;;;20.40;63.00;;;21.62;49.50;97916.50;5020592;28;20050;-65
2023/09/29 08:17:50;;;;;;;12.70;4.30;;;20.40;63.20;;;21.67;49.53;97922.03;5023655;28;20068;-65
2023/09/29 08:20:18;;;;;;;6.43;3.83;;;20.40;63.00;;;21.71;49.88;97923.25;5024375;28;20049;-66
2023/09/29 08:22:46;;;;;;;8.20;5.60;;;20.50;63.20;;;21.77;49.83;97922.38;5024379;28;20042;-64
2023/09/29 08:25:19;;;;;;;5.35;4.05;;;20.60;63.10;;;21.83;49.61;97907.91;5024087;28;20037;-66
2023/09/29 08:27:47;;;;;;;4.70;3.85;;;20.60;63.00;;;21.89;49.63;97913.44;5013115;28;20274;-65
2023/09/29 08:30:14;;;;;;;7.60;4.00;;;20.70;62.70;;;21.95;49.56;97913.38;5020675;28;20046;-65
2023/09/29 08:32:43;;;;;;;5.70;3.50;;;20.80;62.50;;;22.02;49.51;97910.56;5023608;28;20045;-65
2023/09/29 08:35:13;;;;;;;6.80;3.90;;;20.90;62.10;;;22.10;49.30;97910.28;5023669;28;20068;-65
2023/09/29 08:37:42;;;;;;;6.28;4.05;;;21.00;62.00;;;22.19;49.27;97913.50;5020455;28;20417;-65
2023/09/29 08:40:14;;;;;;;6.75;3.78;;;21.00;62.00;;;22.28;49.23;97916.75;5002918;28;20045;-65
2023/09/29 08:42:49;;;;;;;5.75;3.78;;;21.20;62.00;;;22.39;49.25;97916.78;5004638;28;20045;-66
2023/09/29 08:45:19;;;;;;;7.55;4.38;;;21.30;62.10;;;22.50;49.53;97915.16;5023557;28;20045;-65
2023/09/29 08:47:51;;;;;;;6.80;4.28;;;21.50;62.30;;;22.63;48.84;97918.75;5012735;28;20034;-65
2023/09/29 08:50:23;;;;;;;4.53;3.55;;;21.60;60.60;;;22.74;48.00;97923.34;5003156;28;20038;-65
2023/09/29 08:52:53;;;;;;;7.05;3.50;;;21.80;59.20;;;22.86;47.74;97913.38;5013133;28;20053;-65
2023/09/29 08:55:23;;;;;;;4.97;3.72;;;21.90;59.30;;;22.93;47.41;97922.19;5019584;28;20053;-65
2023/09/29 08:57:53;;;;;;;4.95;3.97;;;22.00;58.40;;;23.06;47.34;97921.19;5006631;28;20049;-66
2023/09/29 09:00:24;;;;;;;9.43;4.65;;;22.20;58.40;;;23.17;47.01;97925.00;5006149;28;20420;-65
2023/09/29 09:02:52;;;;;;;6.43;3.60;;;22.30;57.80;;;23.26;46.90;97923.56;5003039;28;20034;-65
2023/09/29 09:05:21;;;;;;;7.00;4.00;;;22.40;57.60;;;23.34;46.97;97911.50;5020053;28;20417;-66
2023/09/29 09:07:50;;;;;;;7.07;3.83;;;22.50;57.50;;;23.42;46.65;97905.75;5020212;28;20034;-66
2023/09/29 09:10:34;;;;;;;4.18;3.15;;;22.50;57.50;;;23.51;46.67;97906.19;5020271;28;20061;-65
2023/09/29 09:13:07;;;;;;;5.60;3.78;;;22.50;56.30;;;23.58;46.28;97906.91;4998010;28;20057;-65
2023/09/29 09:15:35;;;;;;;6.28;3.53;;;22.60;56.90;;;23.56;46.01;97904.41;5003166;28;20504;-65
2023/09/29 09:18:03;;;;;;;4.47;3.25;;;22.60;56.70;;;23.56;45.77;97903.59;5023282;28;20053;-65
2023/09/29 09:20:30;;;;;;;9.95;3.55;;;22.60;56.10;;;23.56;45.90;97906.31;4988762;28;20420;-66
2023/09/29 09:23:03;;;;;;;6.85;3.00;;;22.50;56.80;;;23.53;45.42;97909.50;5019694;28;20046;-65
2023/09/29 09:25:38;;;;;;;5.35;3.35;;;22.60;55.90;;;23.57;45.46;97913.38;5020576;28;20116;-63
2023/09/29 09:28:06;;;;;;;4.97;3.30;;;22.60;55.00;;;23.56;45.19;97909.03;5006081;28;20037;-66
2023/09/29 09:30:37;;;;;;;4.70;3.20;;;22.60;55.50;;;23.59;45.18;97914.81;5003458;28;20057;-65
2023/09/29 09:33:06;;;;;;;4.30;3.35;;;22.60;55.60;;;23.63;44.93;97917.03;5019400;28;20524;-65
2023/09/29 09:35:37;;;;;;;6.50;3.38;;;22.70;55.70;;;23.65;45.16;97917.63;5020562;28;20053;-65
2023/09/29 09:38:05;;;;;;;4.00;3.60;;;22.70;55.70;;;23.67;45.17;97916.34;5023047;28;20046;-65
2023/09/29 09:40:34;;;;;;;4.95;4.25;;;22.60;55.60;;;23.68;45.18;97909.00;5021449;28;20038;-65
2023/09/29 09:43:06;;;;;;;8.38;3.25;;;22.70;55.80;;;23.69;44.82;97914.22;5002175;28;20485;-65
2023/09/29 09:45:44;;;;;;;4.30;3.53;;;22.60;55.70;;;23.72;44.95;97913.72;5020445;28;20046;-66
2023/09/29 09:48:16;;;;;;;5.65;3.47;;;22.70;54.70;;;23.77;44.81;97919.28;5023069;28;20060;-65
2023/09/29 09:50:45;;;;;;;4.57;3.53;;;22.70;54.90;;;23.81;44.63;97908.78;5020363;28;20056;-64
2023/09/29 09:53:13;;;;;;;4.95;3.30;;;22.80;54.50;;;23.88;44.45;97906.72;5018944;28;20050;-64
2023/09/29 09:55:52;;;;;;;5.05;3.28;;;22.90;54.90;;;23.95;44.41;97912.06;5021185;28;20054;-64
2023/09/29 09:58:23;;;;;;;5.00;3.08;;;22.90;53.80;;;24.01;43.73;97908.34;5022987;28;20041;-64
2023/09/29 10:00:55;;;;;;;3.92;2.95;;;23.00;53.70;;;24.07;43.97;97904.66;5002319;28;20046;-62
2023/09/29 10:03:26;;;;;;;7.53;3.15;;;23.00;54.00;;;24.15;43.45;97909.72;5001937;28;20065;-64
2023/09/29 10:05:56;;;;;;;3.88;2.83;;;23.10;53.50;;;24.19;43.03;97901.91;4993758;28;20042;-64
2023/09/29 10:08:33;;;;;;;2.85;2.58;;;23.30;52.80;;;24.22;42.81;97906.88;5019364;28;20041;-64
2023/09/29 10:11:14;;;;;;;3.28;2.80;;;23.40;50.80;;;24.31;42.70;97910.84;5012243;28;20046;-64
2023/09/29 10:13:47;;;;;;;4.45;2.97;;;23.60;50.10;;;24.40;42.42;97908.56;5002916;28;20513;-64
2023/09/29 10:16:23;;;;;;;5.68;3.03;;;23.70;50.30;;;24.49;42.51;97904.38;5022140;28;20049;-64
2023/09/29 10:19:00;;;;;;;5.55;2.90;;;23.60;51.00;;;24.55;42.78;97906.16;5002071;28;20046;-64
2023/09/29 10:21:33;;;;;;;3.75;2.83;;;23.60;51.00;;;24.63;42.49;97907.63;5002354;28;20045;-64
2023/09/29 10:24:05;;;;;;;4.07;3.65;;;23.70;52.00;;;24.66;42.45;97892.69;5023179;28;20052;-65
2023/09/29 10:26:49;;;;;;;4.93;3.38;;;23.90;51.00;;;24.77;42.16;97892.63;5022148;28;20492;-62
2023/09/29 10:29:19;;;;;;;4.97;3.50;;;24.10;49.70;;;24.90;42.19;97893.38;5020183;28;20038;-65
2023/09/29 10:31:49;;;;;;;4.28;2.85;;;24.10;50.60;;;24.90;41.92;97902.38;5021979;28;20057;-65